Time;durP1;ratioP1;P1;durP2;ratioP2;P2;SDS_P1;SDS_P2;PMS_P1;PMS_P2;Temp;Humidity;BMP_temperature;BMP_pressure;BME280_temperature;BME280_humidity;BME280_pressure;Samples;Min_cycle;Max_cycle;Signal;HPM_P1;HPM_P2
2021/07/12 00:02:39;;;;;;;2.63;2.00;;;;;;;;;;5053959;28;20223;-77
2021/07/12 00:05:43;;;;;;;7.00;2.30;;;;;;;;;;5034385;28;20627;-77
2021/07/12 00:08:47;;;;;;;5.00;2.33;;;;;;;;;;5046246;28;20666;-77
2021/07/12 00:11:51;;;;;;;3.10;2.20;;;;;;;;;;5040646;28;20211;-77
2021/07/12 00:14:55;;;;;;;3.67;2.67;;;;;;;;;;5042000;28;20199;-77
2021/07/12 00:18:00;;;;;;;4.53;2.03;;;;;;;;;;5030564;28;20192;-77
2021/07/12 00:21:03;;;;;;;2.83;2.37;;;;;;;;;;5053625;28;20571;-77
2021/07/12 00:24:07;;;;;;;4.30;2.23;;;;;;;;;;5041797;28;20188;-77
2021/07/12 00:27:11;;;;;;;5.30;1.97;;;;;;;;;;5039820;28;20195;-77
2021/07/12 00:30:18;;;;;;;3.60;2.10;;;;;;;;;;5027731;28;20674;-77
2021/07/12 00:33:22;;;;;;;7.20;2.20;;;;;;;;;;5051045;28;20650;-77
2021/07/12 00:36:26;;;;;;;2.50;2.30;;;;;;;;;;5050123;28;20188;-77
2021/07/12 00:39:35;;;;;;;3.83;2.60;;;;;;;;;;5050858;28;20220;-77
2021/07/12 00:42:39;;;;;;;5.20;2.20;;;;;;;;;;5048552;28;20686;-77
2021/07/12 00:45:44;;;;;;;4.40;2.23;;;;;;;;;;5038848;28;20523;-77
2021/07/12 00:48:49;;;;;;;3.77;2.27;;;;;;;;;;5032977;28;20179;-77
2021/07/12 00:51:55;;;;;;;6.13;2.30;;;;;;;;;;5038338;28;20227;-77
2021/07/12 00:55:00;;;;;;;6.50;2.20;;;;;;;;;;5038955;28;20191;-77
2021/07/12 00:58:06;;;;;;;5.43;2.17;;;;;;;;;;5050358;28;20635;-77
2021/07/12 01:01:13;;;;;;;5.10;2.07;;;;;;;;;;5025297;28;20228;-77
2021/07/12 01:04:17;;;;;;;2.57;2.07;;;;;;;;;;4996063;28;20184;-77
2021/07/12 01:07:21;;;;;;;4.80;2.40;;;;;;;;;;5037843;28;20188;-77
2021/07/12 01:10:28;;;;;;;4.50;2.20;;;;;;;;;;5024764;28;20184;-77
2021/07/12 01:13:47;;;;;;;4.80;2.77;;;;;;;;;;5019097;28;20192;-77
2021/07/12 01:17:06;;;;;;;6.37;2.33;;;;;;;;;;5007895;28;20181;-77
2021/07/12 01:20:34;;;;;;;4.57;2.60;;;;;;;;;;5024001;28;20208;-77
2021/07/12 01:24:15;;;;;;;4.20;2.13;;;;;;;;;;5033298;28;20631;-77
2021/07/12 01:27:44;;;;;;;2.73;1.90;;;;;;;;;;5057503;28;20203;-77
2021/07/12 01:31:10;;;;;;;6.13;1.90;;;;;;;;;;5032800;28;20223;-77
2021/07/12 01:34:14;;;;;;;4.30;1.93;;;;;;;;;;5044614;28;20192;-77
2021/07/12 01:37:36;;;;;;;4.80;2.00;;;;;;;;;;5033256;28;20634;-77
2021/07/12 01:41:01;;;;;;;2.17;1.97;;;;;;;;;;5044410;28;20223;-77
2021/07/12 01:44:19;;;;;;;5.57;2.37;;;;;;;;;;5044609;28;20192;-77
2021/07/12 01:47:31;;;;;;;3.90;2.60;;;;;;;;;;5045148;28;20177;-77
2021/07/12 01:50:55;;;;;;;4.87;2.40;;;;;;;;;;5036084;28;20821;-77
2021/07/12 01:54:49;;;;;;;4.30;2.10;;;;;;;;;;5056809;28;20527;-77
2021/07/12 01:58:02;;;;;;;4.40;2.30;;;;;;;;;;4972002;28;20183;-77
2021/07/12 02:01:10;;;;;;;8.13;2.50;;;;;;;;;;4972521;28;20226;-77
2021/07/12 02:04:16;;;;;;;3.70;1.80;;;;;;;;;;5044003;28;20184;-77
2021/07/12 02:07:22;;;;;;;2.93;2.00;;;;;;;;;;5033041;28;20200;-77
2021/07/12 02:10:30;;;;;;;6.13;2.10;;;;;;;;;;5022768;28;20196;-77
2021/07/12 02:13:38;;;;;;;4.07;2.03;;;;;;;;;;5044344;28;20184;-77
2021/07/12 02:16:53;;;;;;;4.20;2.20;;;;;;;;;;5044372;28;20176;-76
2021/07/12 02:19:59;;;;;;;5.70;2.70;;;;;;;;;;5032569;28;20199;-77
2021/07/12 02:23:05;;;;;;;7.30;2.40;;;;;;;;;;5043404;28;20548;-78
2021/07/12 02:26:12;;;;;;;2.20;2.00;;;;;;;;;;5032314;28;20196;-77
2021/07/12 02:29:18;;;;;;;7.20;2.83;;;;;;;;;;5043757;28;20195;-77
2021/07/12 02:32:23;;;;;;;5.97;2.60;;;;;;;;;;5029604;28;20555;-77
2021/07/12 02:35:31;;;;;;;5.33;1.93;;;;;;;;;;5032338;28;20176;-77
2021/07/12 02:38:37;;;;;;;3.50;2.20;;;;;;;;;;5032376;28;20188;-77
2021/07/12 02:41:42;;;;;;;4.53;2.20;;;;;;;;;;5042922;28;20227;-77
2021/07/12 02:44:49;;;;;;;7.27;3.07;;;;;;;;;;5031704;28;20516;-77
2021/07/12 02:47:55;;;;;;;5.33;2.83;;;;;;;;;;5043285;28;20192;-77
2021/07/12 02:51:05;;;;;;;9.13;3.00;;;;;;;;;;5043001;28;20211;-77
2021/07/12 02:54:12;;;;;;;5.20;2.90;;;;;;;;;;5043092;28;20192;-77
2021/07/12 02:57:17;;;;;;;6.80;3.07;;;;;;;;;;5042958;28;20188;-77
2021/07/12 03:00:22;;;;;;;5.33;2.57;;;;;;;;;;5035151;28;20212;-77
2021/07/12 03:03:27;;;;;;;5.37;2.60;;;;;;;;;;5039048;28;20188;-77
2021/07/12 03:06:32;;;;;;;3.73;2.43;;;;;;;;;;5031591;28;20200;-77
2021/07/12 03:09:41;;;;;;;7.67;2.67;;;;;;;;;;5042999;28;20658;-77
2021/07/12 03:12:55;;;;;;;3.33;2.57;;;;;;;;;;5043170;28;20181;-77
2021/07/12 03:16:05;;;;;;;4.57;2.70;;;;;;;;;;5042648;28;20180;-77
2021/07/12 03:19:19;;;;;;;3.67;2.20;;;;;;;;;;5020516;28;20508;-77
2021/07/12 03:22:25;;;;;;;2.47;2.27;;;;;;;;;;5040147;28;20212;-77
2021/07/12 03:25:33;;;;;;;5.03;2.73;;;;;;;;;;5042701;28;20184;-77
2021/07/12 03:28:39;;;;;;;3.50;2.43;;;;;;;;;;5042291;28;20192;-77
2021/07/12 03:31:44;;;;;;;6.07;2.40;;;;;;;;;;5019988;28;20215;-77
2021/07/12 03:34:51;;;;;;;5.80;2.53;;;;;;;;;;5030867;28;20195;-77
2021/07/12 03:37:56;;;;;;;8.37;2.83;;;;;;;;;;5042340;28;20180;-77
2021/07/12 03:41:01;;;;;;;4.37;2.40;;;;;;;;;;5030616;28;20220;-77
2021/07/12 03:44:06;;;;;;;7.40;2.73;;;;;;;;;;5042022;28;20378;-77
2021/07/12 03:47:29;;;;;;;4.07;2.80;;;;;;;;;;5042409;28;20181;-77
2021/07/12 03:50:37;;;;;;;5.87;2.40;;;;;;;;;;5041892;28;20192;-77
2021/07/12 03:53:40;;;;;;;4.27;2.87;;;;;;;;;;5023017;28;20195;-77
2021/07/12 03:56:46;;;;;;;4.63;2.50;;;;;;;;;;5042083;28;20505;-77
2021/07/12 03:59:50;;;;;;;5.43;2.80;;;;;;;;;;5042416;28;20516;-76
2021/07/12 04:02:56;;;;;;;5.50;2.60;;;;;;;;;;5053916;28;20192;-77
2021/07/12 04:06:00;;;;;;;4.83;3.10;;;;;;;;;;5053991;28;20196;-76
2021/07/12 04:09:04;;;;;;;6.33;3.33;;;;;;;;;;5054245;28;20176;-76
2021/07/12 04:12:08;;;;;;;8.07;3.30;;;;;;;;;;5053642;28;20220;-76
2021/07/12 04:15:14;;;;;;;4.53;3.50;;;;;;;;;;5053958;28;20184;-77
2021/07/12 04:18:18;;;;;;;6.83;4.73;;;;;;;;;;5053798;28;20200;-77
2021/07/12 04:21:23;;;;;;;9.17;5.33;;;;;;;;;;5041176;28;20228;-77
2021/07/12 04:24:26;;;;;;;8.50;5.60;;;;;;;;;;5037139;28;20646;-77
2021/07/12 04:27:31;;;;;;;13.43;7.60;;;;;;;;;;5041460;28;20184;-77
2021/07/12 04:30:35;;;;;;;11.10;8.33;;;;;;;;;;5053680;28;20184;-76
2021/07/12 04:33:39;;;;;;;6.67;5.70;;;;;;;;;;5052517;28;20196;-77
2021/07/12 04:36:43;;;;;;;11.47;5.40;;;;;;;;;;5053832;28;20176;-77
2021/07/12 04:39:50;;;;;;;7.73;6.23;;;;;;;;;;5029825;28;20195;-77
2021/07/12 04:42:54;;;;;;;16.43;7.40;;;;;;;;;;5035836;28;20536;-78
2021/07/12 04:45:58;;;;;;;9.73;6.90;;;;;;;;;;5041363;28;20188;-77
2021/07/12 04:49:02;;;;;;;8.10;5.90;;;;;;;;;;5030006;28;20200;-77
2021/07/12 04:52:07;;;;;;;7.73;6.03;;;;;;;;;;5040601;28;20697;-77
2021/07/12 04:55:11;;;;;;;5.87;5.00;;;;;;;;;;5040969;28;20191;-77
2021/07/12 04:58:16;;;;;;;8.23;5.70;;;;;;;;;;5040758;28;20200;-77
2021/07/12 05:01:20;;;;;;;6.23;5.63;;;;;;;;;;5052711;28;20220;-77
2021/07/12 05:04:24;;;;;;;5.93;5.33;;;;;;;;;;5040938;28;20192;-77
2021/07/12 05:07:28;;;;;;;6.53;5.30;;;;;;;;;;5032566;23;20236;-74
2021/07/12 05:10:32;;;;;;;5.60;4.10;;;;;;;;;;5006561;28;20189;-74
2021/07/12 05:13:37;;;;;;;4.93;4.30;;;;;;;;;;5033496;28;20532;-74
2021/07/12 05:16:41;;;;;;;6.30;3.73;;;;;;;;;;5045676;28;20188;-74
2021/07/12 05:19:45;;;;;;;4.27;3.43;;;;;;;;;;5051171;28;20188;-74
2021/07/12 05:22:49;;;;;;;4.43;4.00;;;;;;;;;;5007963;28;20228;-74
2021/07/12 05:25:53;;;;;;;3.80;3.40;;;;;;;;;;5033453;28;20199;-74
2021/07/12 05:28:57;;;;;;;4.27;3.30;;;;;;;;;;5039686;28;20196;-74
2021/07/12 05:32:01;;;;;;;3.50;3.20;;;;;;;;;;5052819;28;20563;-74
2021/07/12 05:35:05;;;;;;;3.90;3.47;;;;;;;;;;5053010;28;20196;-75
2021/07/12 05:38:10;;;;;;;3.73;3.03;;;;;;;;;;5041422;28;20184;-76
2021/07/12 05:41:14;;;;;;;4.93;3.00;;;;;;;;;;5040791;28;20223;-74
2021/07/12 05:44:18;;;;;;;4.37;3.73;;;;;;;;;;5053030;28;20658;-74
2021/07/12 05:47:22;;;;;;;3.70;3.13;;;;;;;;;;5053187;28;20184;-75
2021/07/12 05:50:27;;;;;;;4.13;3.50;;;;;;;;;;5040481;28;20177;-74
2021/07/12 05:53:31;;;;;;;3.30;3.00;;;;;;;;;;5040434;28;20188;-74
2021/07/12 05:56:35;;;;;;;3.20;2.63;;;;;;;;;;5052416;28;20650;-74
2021/07/12 05:59:39;;;;;;;3.50;2.70;;;;;;;;;;5052514;28;20200;-75
2021/07/12 06:02:43;;;;;;;3.07;2.77;;;;;;;;;;5040452;28;20204;-75
2021/07/12 06:05:48;;;;;;;2.60;2.40;;;;;;;;;;5052776;28;20192;-74
2021/07/12 06:08:51;;;;;;;4.60;2.77;;;;;;;;;;5022738;28;20193;-74
2021/07/12 06:11:55;;;;;;;3.70;2.80;;;;;;;;;;5056433;28;20547;-75
2021/07/12 06:15:00;;;;;;;3.70;2.33;;;;;;;;;;5056569;28;20176;-75
2021/07/12 06:18:10;;;;;;;3.80;2.27;;;;;;;;;;5024297;28;20628;-76
2021/07/12 06:21:14;;;;;;;3.27;2.97;;;;;;;;;;5024248;28;20224;-75
2021/07/12 06:24:18;;;;;;;2.23;2.03;;;;;;;;;;5036885;28;20200;-76
2021/07/12 06:27:23;;;;;;;2.30;2.10;;;;;;;;;;5023885;28;20189;-75
2021/07/12 06:30:27;;;;;;;5.93;2.13;;;;;;;;;;5036220;28;20181;-75
2021/07/12 06:33:31;;;;;;;2.83;1.87;;;;;;;;;;5036529;28;20177;-76
2021/07/12 06:36:35;;;;;;;2.73;1.80;;;;;;;;;;5036152;28;20185;-74
2021/07/12 06:39:39;;;;;;;3.93;2.10;;;;;;;;;;5043120;28;20204;-75
2021/07/12 06:42:44;;;;;;;3.50;1.70;;;;;;;;;;5054920;28;20211;-75
2021/07/12 06:45:48;;;;;;;2.10;1.73;;;;;;;;;;5055938;28;20184;-76
2021/07/12 06:48:52;;;;;;;2.00;1.80;;;;;;;;;;5055909;28;20180;-76
2021/07/12 06:51:56;;;;;;;3.73;2.17;;;;;;;;;;5043596;28;20212;-75
2021/07/12 06:55:00;;;;;;;3.27;1.80;;;;;;;;;;5055790;28;20176;-76
2021/07/12 06:58:08;;;;;;;3.87;2.00;;;;;;;;;;5055791;28;20180;-75
2021/07/12 07:01:12;;;;;;;3.30;1.90;;;;;;;;;;5043289;28;20219;-74
2021/07/12 07:04:16;;;;;;;2.40;2.20;;;;;;;;;;5035796;28;20200;-75
2021/07/12 07:07:21;;;;;;;3.43;2.20;;;;;;;;;;5031435;28;20207;-74
2021/07/12 07:10:25;;;;;;;5.07;2.27;;;;;;;;;;5011490;28;20197;-74
2021/07/12 07:13:29;;;;;;;2.13;1.77;;;;;;;;;;5053691;28;20551;-74
2021/07/12 07:16:38;;;;;;;2.77;1.77;;;;;;;;;;5029561;28;20181;-74
2021/07/12 07:19:42;;;;;;;2.40;2.20;;;;;;;;;;5041624;28;20539;-74
2021/07/12 07:22:47;;;;;;;3.70;2.17;;;;;;;;;;5054563;28;20701;-74
2021/07/12 07:25:51;;;;;;;2.43;2.00;;;;;;;;;;5029129;28;20207;-74
2021/07/12 07:28:56;;;;;;;1.70;1.60;;;;;;;;;;5019775;28;20187;-74
2021/07/12 07:32:00;;;;;;;2.03;1.57;;;;;;;;;;5042476;28;20215;-75
2021/07/12 07:35:07;;;;;;;2.73;1.63;;;;;;;;;;5042107;28;20643;-75
2021/07/12 07:38:11;;;;;;;2.20;1.73;;;;;;;;;;5031220;28;20539;-76
2021/07/12 07:41:18;;;;;;;6.30;1.70;;;;;;;;;;5042262;28;20211;-75
2021/07/12 07:44:23;;;;;;;1.83;1.67;;;;;;;;;;5041886;28;20204;-74
2021/07/12 07:47:28;;;;;;;1.50;1.33;;;;;;;;;;5022744;28;20181;-76
2021/07/12 07:50:36;;;;;;;1.93;1.57;;;;;;;;;;5011332;28;20173;-75
2021/07/12 07:53:40;;;;;;;5.53;2.20;;;;;;;;;;5035611;28;20185;-74
2021/07/12 07:56:44;;;;;;;1.40;1.30;;;;;;;;;;5054430;28;20188;-75
2021/07/12 07:59:48;;;;;;;1.67;1.47;;;;;;;;;;5042073;28;20191;-75
2021/07/12 08:02:52;;;;;;;2.43;1.67;;;;;;;;;;5053954;28;20212;-76
2021/07/12 08:05:57;;;;;;;3.07;1.90;;;;;;;;;;5019269;28;20208;-75
2021/07/12 08:09:01;;;;;;;2.40;1.80;;;;;;;;;;5041665;28;20200;-75
2021/07/12 08:12:05;;;;;;;2.97;1.60;;;;;;;;;;5041125;28;20216;-75
2021/07/12 08:15:12;;;;;;;2.73;1.53;;;;;;;;;;5041897;28;20193;-74
2021/07/12 08:18:16;;;;;;;2.07;1.40;;;;;;;;;;5041862;28;20173;-75
2021/07/12 08:21:21;;;;;;;1.47;1.30;;;;;;;;;;5053674;28;20218;-74
2021/07/12 08:24:25;;;;;;;4.13;1.45;;;;;;;;;;5054093;28;20187;-75
2021/07/12 08:27:30;;;;;;;1.92;1.20;;;;;;;;;;5041426;28;20193;-75
2021/07/12 08:30:34;;;;;;;4.57;1.33;;;;;;;;;;5053656;28;20522;-74
2021/07/12 08:33:39;;;;;;;2.63;1.40;;;;;;;;;;5041291;28;20192;-74
2021/07/12 08:36:44;;;;;;;3.40;1.40;;;;;;;;;;5054064;28;20187;-75
2021/07/12 08:39:48;;;;;;;1.38;1.27;;;;;;;;;;5041631;28;20191;-74
2021/07/12 08:42:54;;;;;;;1.38;1.27;;;;;;;;;;5039218;28;20214;-74
2021/07/12 08:45:58;;;;;;;1.88;1.40;;;;;;;;;;5028396;28;20659;-74
2021/07/12 08:49:02;;;;;;;2.38;1.20;;;;;;;;;;5046325;28;20189;-74
2021/07/12 08:52:06;;;;;;;5.32;1.17;;;;;;;;;;5037651;28;20218;-74
2021/07/12 08:55:13;;;;;;;2.28;1.15;;;;;;;;;;5053117;28;20290;-74
2021/07/12 08:58:20;;;;;;;3.83;1.15;;;;;;;;;;5041211;28;20186;-74
2021/07/12 09:01:24;;;;;;;2.13;1.25;;;;;;;;;;5053509;28;20215;-75
2021/07/12 09:04:28;;;;;;;5.88;1.20;;;;;;;;;;5053099;28;20643;-73
2021/07/12 09:07:32;;;;;;;8.77;1.23;;;;;;;;;;5049128;28;20544;-75
2021/07/12 09:10:36;;;;;;;2.05;1.25;;;;;;;;;;5053295;28;20190;-74
2021/07/12 09:13:45;;;;;;;3.65;1.35;;;;;;;;;;5053190;28;20183;-75
2021/07/12 09:16:55;;;;;;;1.17;1.08;;;;;;;;;;5040783;28;20196;-74
2021/07/12 09:20:00;;;;;;;1.10;1.00;;;;;;;;;;5052854;28;20195;-74
2021/07/12 09:23:21;;;;;;;1.38;1.13;;;;;;;;;;5040858;28;20559;-75
2021/07/12 09:26:26;;;;;;;2.33;1.17;;;;;;;;;;5052546;28;20191;-73
2021/07/12 09:29:33;;;;;;;2.05;1.20;;;;;;;;;;5041001;28;20186;-74
2021/07/12 09:32:39;;;;;;;2.05;1.10;;;;;;;;;;5053650;28;20216;-73
2021/07/12 09:35:44;;;;;;;1.10;0.90;;;;;;;;;;5051818;28;20206;-73
2021/07/12 09:38:48;;;;;;;3.10;1.10;;;;;;;;;;5041131;28;20183;-73
2021/07/12 09:41:54;;;;;;;2.58;1.10;;;;;;;;;;5040513;28;20222;-73
2021/07/12 09:45:07;;;;;;;5.32;1.20;;;;;;;;;;5056976;28;20181;-73
2021/07/12 09:48:11;;;;;;;1.10;1.00;;;;;;;;;;5033172;28;20174;-74
2021/07/12 09:51:30;;;;;;;1.40;1.20;;;;;;;;;;5056908;28;20216;-74
2021/07/12 09:54:37;;;;;;;3.38;0.90;;;;;;;;;;5044375;28;20192;-72
2021/07/12 09:57:41;;;;;;;4.03;1.10;;;;;;;;;;5044211;28;20181;-73
2021/07/12 10:00:48;;;;;;;4.25;1.15;;;;;;;;;;5044619;28;20563;-72
2021/07/12 10:03:52;;;;;;;3.38;1.30;;;;;;;;;;5032815;28;20204;-72
2021/07/12 10:06:56;;;;;;;4.50;1.30;;;;;;;;;;5043921;28;20212;-72
2021/07/12 10:10:02;;;;;;;1.13;0.80;;;;;;;;;;5044061;28;20181;-72
2021/07/12 10:13:07;;;;;;;0.98;0.88;;;;;;;;;;5056450;28;20172;-71
2021/07/12 10:16:11;;;;;;;1.13;0.90;;;;;;;;;;5043927;28;20208;-72
2021/07/12 10:19:16;;;;;;;0.98;0.90;;;;;;;;;;5036553;28;20181;-72
2021/07/12 10:22:23;;;;;;;1.17;1.08;;;;;;;;;;5053805;28;20571;-71
2021/07/12 10:25:28;;;;;;;1.58;1.00;;;;;;;;;;5056249;28;20196;-72
2021/07/12 10:28:41;;;;;;;1.52;1.25;;;;;;;;;;5056116;28;20200;-72
2021/07/12 10:31:55;;;;;;;2.00;1.00;;;;;;;;;;5055602;28;20232;-71
2021/07/12 10:34:59;;;;;;;1.23;1.02;;;;;;;;;;5053974;28;20184;-73
2021/07/12 10:38:04;;;;;;;2.75;1.08;;;;;;;;;;5051997;28;20181;-71
2021/07/12 10:41:21;;;;;;;2.00;1.05;;;;;;;;;;5051988;28;20564;-71
2021/07/12 10:44:26;;;;;;;0.90;0.90;;;;;;;;;;5051739;28;20212;-71
2021/07/12 10:47:50;;;;;;;1.10;1.00;;;;;;;;;;5051906;28;20667;-71
2021/07/12 10:50:55;;;;;;;1.10;0.90;;;;;;;;;;5028551;28;20220;-72
2021/07/12 10:54:00;;;;;;;1.20;1.10;;;;;;;;;;5039059;28;20184;-71
2021/07/12 10:57:15;;;;;;;1.85;1.20;;;;;;;;;;5056572;28;20191;-71
2021/07/12 11:00:19;;;;;;;3.72;1.70;;;;;;;;;;5060873;28;20196;-71
2021/07/12 11:03:46;;;;;;;2.17;1.33;;;;;;;;;;5039520;28;20216;-73
2021/07/12 11:06:52;;;;;;;1.40;1.30;;;;;;;;;;5019769;28;20532;-73
2021/07/12 11:10:03;;;;;;;2.47;1.40;;;;;;;;;;5021790;28;20200;-74
2021/07/12 11:13:11;;;;;;;2.42;1.27;;;;;;;;;;5061975;23;20232;-87
2021/07/12 11:16:17;;;;;;;1.67;1.10;;;;;;;;;;5003635;28;20539;-86
2021/07/12 11:19:32;;;;;;;2.58;1.00;;;;;;;;;;4992596;28;20174;-86
2021/07/12 11:22:51;;;;;;;2.03;0.80;;;;;;;;;;4992438;28;20214;-86
2021/07/12 11:25:55;;;;;;;2.05;1.05;;;;;;;;;;5015839;28;20186;-86
2021/07/12 11:29:16;;;;;;;1.10;1.00;;;;;;;;;;4993091;28;20178;-86
2021/07/12 11:32:20;;;;;;;1.55;0.90;;;;;;;;;;5014727;28;20190;-85
2021/07/12 11:35:24;;;;;;;1.10;1.00;;;;;;;;;;5003903;28;20194;-86
2021/07/12 11:38:28;;;;;;;0.80;0.80;;;;;;;;;;5004084;28;20186;-86
2021/07/12 11:41:32;;;;;;;2.05;1.00;;;;;;;;;;5014284;28;20181;-86
2021/07/12 11:44:36;;;;;;;2.50;0.80;;;;;;;;;;5003014;28;20214;-86
2021/07/12 11:47:47;;;;;;;3.25;0.90;;;;;;;;;;5009982;28;20209;-87
2021/07/12 11:50:51;;;;;;;1.48;0.95;;;;;;;;;;5014450;28;20522;-86
2021/07/12 11:53:55;;;;;;;1.02;0.60;;;;;;;;;;5018532;28;20707;-87
2021/07/12 11:57:11;;;;;;;2.65;0.80;;;;;;;;;;5022675;28;20200;-87
2021/07/12 12:00:18;;;;;;;3.38;0.90;;;;;;;;;;5023099;28;20186;-88
2021/07/12 12:03:22;;;;;;;2.78;0.90;;;;;;;;;;5011300;28;20221;-87
2021/07/12 12:06:26;;;;;;;3.80;0.90;;;;;;;;;;5033035;28;20181;-87
2021/07/12 12:09:47;;;;;;;0.95;0.90;;;;;;;;;;5011276;28;20201;-86
2021/07/12 12:12:52;;;;;;;0.98;0.80;;;;;;;;;;5010673;28;20586;-86
2021/07/12 12:15:56;;;;;;;0.85;0.70;;;;;;;;;;5021966;28;20193;-87
2021/07/12 12:19:07;;;;;;;3.28;0.90;;;;;;;;;;5033490;28;20506;-86
2021/07/12 12:22:19;;;;;;;0.75;0.75;;;;;;;;;;5022216;28;20193;-87
2021/07/12 12:25:25;;;;;;;1.10;0.77;;;;;;;;;;4998797;28;20189;-86
2021/07/12 12:28:34;;;;;;;0.80;0.77;;;;;;;;;;5010662;28;20205;-86
2021/07/12 12:31:39;;;;;;;5.00;0.80;;;;;;;;;;5010864;28;20177;-87
2021/07/12 12:34:43;;;;;;;2.38;0.80;;;;;;;;;;4990393;28;20229;-86
2021/07/12 12:37:47;;;;;;;3.38;1.05;;;;;;;;;;5007034;28;20181;-85
2021/07/12 12:40:58;;;;;;;0.80;0.80;;;;;;;;;;5017812;28;20193;-86
2021/07/12 12:44:14;;;;;;;2.10;1.02;;;;;;;;;;5017978;28;20221;-86
2021/07/12 12:47:26;;;;;;;2.00;1.20;;;;;;;;;;5017940;28;20181;-86
2021/07/12 12:50:30;;;;;;;3.50;0.88;;;;;;;;;;5017813;28;20648;-86
2021/07/12 12:53:34;;;;;;;1.83;0.80;;;;;;;;;;5017256;28;20584;-86
2021/07/12 12:56:47;;;;;;;0.95;0.80;;;;;;;;;;5018125;28;20181;-86
2021/07/12 12:59:51;;;;;;;3.30;1.00;;;;;;;;;;5003897;28;20201;-85
2021/07/12 13:02:56;;;;;;;1.17;1.08;;;;;;;;;;5019286;28;20576;-86
2021/07/12 13:06:02;;;;;;;4.47;0.90;;;;;;;;;;5031072;28;20201;-86
2021/07/12 13:09:08;;;;;;;1.05;0.93;;;;;;;;;;5031085;28;20216;-86
2021/07/12 13:12:19;;;;;;;1.70;1.10;;;;;;;;;;5019676;28;20181;-86
2021/07/12 13:15:31;;;;;;;1.30;0.80;;;;;;;;;;5019673;28;20181;-86
2021/07/12 13:18:35;;;;;;;1.38;1.00;;;;;;;;;;5010324;28;20193;-85
2021/07/12 13:21:50;;;;;;;1.13;1.02;;;;;;;;;;5012318;28;20205;-86
2021/07/12 13:25:14;;;;;;;0.73;0.73;;;;;;;;;;5012825;28;20547;-89
2021/07/12 13:28:20;;;;;;;1.65;0.82;;;;;;;;;;5024098;28;20170;-86
2021/07/12 13:31:27;;;;;;;1.27;1.10;;;;;;;;;;5012515;28;20180;-87
2021/07/12 13:34:31;;;;;;;1.25;0.85;;;;;;;;;;5004380;28;20217;-87
2021/07/12 13:37:42;;;;;;;1.42;0.88;;;;;;;;;;5025107;28;20181;-86
2021/07/12 13:40:47;;;;;;;4.43;0.88;;;;;;;;;;5023962;28;20189;-88
2021/07/12 13:43:52;;;;;;;1.40;1.00;;;;;;;;;;5012286;28;20209;-87
2021/07/12 13:46:56;;;;;;;1.88;0.80;;;;;;;;;;5012203;28;20632;-87
2021/07/12 13:50:00;;;;;;;1.63;1.08;;;;;;;;;;5034571;28;20197;-87
2021/07/12 13:53:05;;;;;;;1.00;0.90;;;;;;;;;;5011653;28;20221;-87
2021/07/12 13:56:10;;;;;;;0.80;0.63;;;;;;;;;;5003691;28;20189;-87
2021/07/12 13:59:14;;;;;;;1.83;0.90;;;;;;;;;;5014346;28;20205;-88
2021/07/12 14:02:19;;;;;;;1.17;0.88;;;;;;;;;;5005232;28;20197;-87
2021/07/12 14:05:23;;;;;;;0.90;0.80;;;;;;;;;;5031673;28;20182;-86
2021/07/12 14:08:28;;;;;;;1.30;0.93;;;;;;;;;;5022751;28;20664;-87
2021/07/12 14:11:34;;;;;;;3.10;0.88;;;;;;;;;;5022923;28;20177;-87
2021/07/12 14:14:38;;;;;;;1.50;1.10;;;;;;;;;;5022247;28;20228;-87
2021/07/12 14:17:43;;;;;;;0.90;0.90;;;;;;;;;;5022332;28;20189;-87
2021/07/12 14:20:47;;;;;;;2.17;1.33;;;;;;;;;;5022717;28;20181;-86
2021/07/12 14:23:52;;;;;;;1.30;1.10;;;;;;;;;;5022488;28;20212;-87
2021/07/12 14:26:56;;;;;;;9.25;1.10;;;;;;;;;;5022351;28;20534;-86
2021/07/12 14:30:00;;;;;;;0.80;0.80;;;;;;;;;;5032380;28;20193;-87
2021/07/12 14:33:04;;;;;;;6.30;1.00;;;;;;;;;;5033655;28;20212;-87
2021/07/12 14:36:08;;;;;;;4.18;0.95;;;;;;;;;;5008301;28;20184;-86
2021/07/12 14:39:13;;;;;;;2.95;1.30;;;;;;;;;;5022016;28;20193;-87
2021/07/12 14:42:17;;;;;;;2.30;1.10;;;;;;;;;;5010606;28;20562;-86
2021/07/12 14:45:25;;;;;;;1.10;1.00;;;;;;;;;;5011053;28;20185;-86
2021/07/12 14:48:29;;;;;;;1.00;1.00;;;;;;;;;;5020863;28;20209;-87
2021/07/12 14:51:34;;;;;;;2.45;1.23;;;;;;;;;;5032430;28;20185;-87
2021/07/12 14:54:39;;;;;;;2.00;1.20;;;;;;;;;;5007979;28;20228;-87
2021/07/12 14:57:43;;;;;;;3.17;1.60;;;;;;;;;;4989306;28;20206;-87
2021/07/12 15:00:47;;;;;;;2.83;1.42;;;;;;;;;;5030365;28;20204;-87
2021/07/12 15:03:51;;;;;;;3.28;1.27;;;;;;;;;;5020009;28;20221;-87
2021/07/12 15:06:55;;;;;;;1.52;1.42;;;;;;;;;;5018641;28;20200;-87
2021/07/12 15:10:00;;;;;;;1.83;1.40;;;;;;;;;;5019856;28;20181;-88
2021/07/12 15:13:04;;;;;;;2.47;1.40;;;;;;;;;;5007636;28;20566;-87
2021/07/12 15:16:08;;;;;;;3.75;1.80;;;;;;;;;;5023062;28;20185;-86
2021/07/12 15:19:12;;;;;;;3.42;1.50;;;;;;;;;;5034139;28;20526;-87
2021/07/12 15:22:16;;;;;;;4.28;1.30;;;;;;;;;;5012095;28;20568;-87
2021/07/12 15:25:20;;;;;;;2.55;1.83;;;;;;;;;;5022745;28;20193;-88
2021/07/12 15:28:25;;;;;;;2.78;1.70;;;;;;;;;;5011721;28;20201;-87
2021/07/12 15:31:30;;;;;;;2.42;1.60;;;;;;;;;;5011328;28;20197;-87
2021/07/12 15:34:35;;;;;;;2.42;1.48;;;;;;;;;;5005853;28;20228;-87
2021/07/12 15:37:40;;;;;;;2.70;1.45;;;;;;;;;;5022971;28;20525;-87
2021/07/12 15:40:45;;;;;;;1.63;1.50;;;;;;;;;;5034086;28;20648;-87
2021/07/12 15:43:49;;;;;;;1.80;1.52;;;;;;;;;;5034122;28;20228;-87
2021/07/12 15:46:53;;;;;;;3.72;1.50;;;;;;;;;;5011551;28;20204;-87
2021/07/12 15:49:58;;;;;;;2.97;1.30;;;;;;;;;;5023207;28;20188;-87
2021/07/12 15:53:05;;;;;;;1.48;1.38;;;;;;;;;;5011455;28;20227;-87
2021/07/12 15:56:09;;;;;;;1.20;1.10;;;;;;;;;;5022691;28;20204;-87
2021/07/12 15:59:13;;;;;;;3.17;1.60;;;;;;;;;;5011538;28;20186;-87
2021/07/12 16:02:18;;;;;;;7.85;1.70;;;;;;;;;;5011553;28;20183;-87
2021/07/12 16:05:22;;;;;;;3.65;1.50;;;;;;;;;;5033756;28;20567;-87
2021/07/12 16:08:26;;;;;;;11.50;1.70;;;;;;;;;;5011193;28;20207;-87
2021/07/12 16:11:30;;;;;;;2.33;1.77;;;;;;;;;;5011547;28;20180;-87
2021/07/12 16:14:34;;;;;;;2.33;1.42;;;;;;;;;;5010982;28;20231;-87
2021/07/12 16:17:39;;;;;;;2.35;1.77;;;;;;;;;;5022337;28;20195;-87
2021/07/12 16:20:43;;;;;;;3.03;1.70;;;;;;;;;;5011014;28;20200;-87
2021/07/12 16:23:47;;;;;;;4.25;1.45;;;;;;;;;;5011638;28;20537;-87
2021/07/12 16:26:52;;;;;;;4.00;1.50;;;;;;;;;;5022555;28;20209;-86
2021/07/12 16:29:56;;;;;;;3.60;1.42;;;;;;;;;;5022756;28;20643;-87
2021/07/12 16:33:00;;;;;;;2.28;1.67;;;;;;;;;;5020612;28;20224;-86
2021/07/12 16:36:04;;;;;;;2.10;1.65;;;;;;;;;;5008680;28;20217;-85
2021/07/12 16:39:09;;;;;;;1.98;1.77;;;;;;;;;;5008933;28;20187;-84
2021/07/12 16:42:14;;;;;;;2.58;1.95;;;;;;;;;;5019876;28;20177;-86
2021/07/12 16:45:18;;;;;;;3.00;2.10;;;;;;;;;;5008323;28;20180;-86
2021/07/12 16:48:22;;;;;;;5.80;1.85;;;;;;;;;;5020237;28;20248;-85
2021/07/12 16:51:28;;;;;;;8.70;2.17;;;;;;;;;;5020067;28;20185;-86
2021/07/12 16:54:32;;;;;;;7.18;2.33;;;;;;;;;;5008223;28;20225;-87
2021/07/12 16:57:37;;;;;;;8.23;1.80;;;;;;;;;;5007996;28;20194;-86
2021/07/12 17:00:41;;;;;;;3.60;1.97;;;;;;;;;;5009086;28;20204;-87
2021/07/12 17:03:46;;;;;;;4.63;2.20;;;;;;;;;;5030936;28;20228;-87
2021/07/12 17:06:53;;;;;;;4.07;2.00;;;;;;;;;;5000709;28;20647;-87
2021/07/12 17:09:57;;;;;;;4.53;2.00;;;;;;;;;;5019538;28;20196;-86
2021/07/12 17:13:01;;;;;;;3.10;2.20;;;;;;;;;;5031168;28;20228;-85
2021/07/12 17:16:05;;;;;;;2.73;2.10;;;;;;;;;;5019785;28;20556;-89
2021/07/12 17:19:09;;;;;;;4.73;3.00;;;;;;;;;;5032123;28;20183;-84
2021/07/12 17:22:13;;;;;;;5.50;2.70;;;;;;;;;;5008355;28;20197;-87
2021/07/12 17:25:17;;;;;;;3.57;2.40;;;;;;;;;;5008527;28;20187;-86
2021/07/12 17:28:21;;;;;;;3.97;2.10;;;;;;;;;;5019678;28;20185;-85
2021/07/12 17:31:25;;;;;;;4.27;2.20;;;;;;;;;;5019678;28;20189;-88
2021/07/12 17:34:29;;;;;;;3.10;2.10;;;;;;;;;;5021723;28;20229;-84
2021/07/12 17:37:34;;;;;;;2.57;1.83;;;;;;;;;;5021782;28;20215;-84
2021/07/12 17:44:41;;;;;;;2.77;1.90;;;;;;;;;;5040827;23;20216;-87
2021/07/12 17:47:48;;;;;;;8.37;2.80;;;;;;;;;;5001816;28;20202;-87
2021/07/12 17:50:53;;;;;;;3.20;2.53;;;;;;;;;;5013798;28;20183;-87
2021/07/12 17:53:57;;;;;;;7.90;2.87;;;;;;;;;;4986544;28;20211;-87
2021/07/12 17:57:02;;;;;;;13.27;3.63;;;;;;;;;;4982664;28;20172;-87
2021/07/12 18:00:08;;;;;;;8.37;2.63;;;;;;;;;;4982336;28;20193;-87
2021/07/12 18:03:22;;;;;;;7.20;2.80;;;;;;;;;;4971940;28;20197;-87
2021/07/12 18:06:32;;;;;;;6.17;2.60;;;;;;;;;;4996609;28;20221;-88
2021/07/12 18:09:42;;;;;;;5.27;2.47;;;;;;;;;;4975135;28;20198;-88
2021/07/12 18:12:46;;;;;;;7.30;4.00;;;;;;;;;;4985535;28;20202;-88
2021/07/12 18:15:50;;;;;;;10.43;4.10;;;;;;;;;;4973968;28;20228;-88
2021/07/12 18:18:54;;;;;;;7.90;2.90;;;;;;;;;;4996471;28;20190;-88
2021/07/12 18:21:59;;;;;;;10.03;2.80;;;;;;;;;;4996582;28;20184;-87
2021/07/12 18:25:06;;;;;;;5.60;2.63;;;;;;;;;;4990574;28;20234;-87
2021/07/12 18:28:33;;;;;;;7.87;2.77;;;;;;;;;;5007581;28;20637;-87
2021/07/12 18:31:39;;;;;;;4.53;2.47;;;;;;;;;;4963204;28;20215;-88
2021/07/12 18:34:45;;;;;;;10.57;6.03;;;;;;;;;;4985404;28;20222;-87
2021/07/12 18:37:49;;;;;;;12.47;6.23;;;;;;;;;;4996433;28;20188;-87
2021/07/12 18:40:53;;;;;;;9.20;5.83;;;;;;;;;;4974034;28;20178;-87
2021/07/12 18:43:58;;;;;;;12.13;4.97;;;;;;;;;;4985076;28;20179;-88